岡山グライダークラブ活動状況掲示板あなたは無料カウンター人目の訪問者です

岡山グライダークラブ
岡山市浦安南町639-1 岡南飛行場
 使用機:シャイベ式 SF25C型 ファルケ   JA2330
      ヴァレンティン式17E型 タイフーン  JA2342
 練習日:毎日曜日  クラブルーム:電話 086-265-1810
この掲示板は岡山グライダークラブの活動状況をお知らせする掲示板です。
!!!この掲示板は投稿規制をしています。!!!
クラブ関連各種情報は 岡山グライダークラブクラブルーム      を       .
  ブリーフイング情報は  岡山グライダークラブブリーフィングルーム  をご覧下さい。 .
※写真はクリックすると拡大して見ることが出来ます。
岡南飛行場へのアクセス等は 岡南飛行場管理事務所 をご覧ください。
クラブの ホームページ ができました。

 
11月03日
by OGC at 2019/11/4(月) 00:15:36 No.20191104000939  削除コメント
1477 x 1108 x 45,173バイト <この画像は大きいので別画面で表示します>
No.1

11月03日
本日の参加者
  会員      13名
  その他      0名


@本日の様子




METAR
RJBK 030000Z VRB01KT 25KM FEW025CU SCT060SC BKN/// 14/10 Q1017 A3005
RJOB 030000Z VRB01KT 9999 FEW020 BKN160 14/10 Q1017
RJOT 030000Z VRB01KT 9999 FEW030 SCT060 BKN180 16/13 Q1017
RJOA 030000Z VRB02KT 9999 FEW020 SCT170 BKN/// 15/08 Q1018
TAF
RJOB 022312Z 0300/0406 02004KT 9999 FEW025
     BECMG 0300/0302 23005KT
     BECMG 0308/0310 36004KT
RJOT 022309Z 0300/0406 28006KT 9999 FEW030
     BECMG 0321/0400 03005KT
RJOA 022306Z 0300/0406 30005KT 9999 FEW025 SCT040
     BECMG 0315/0318 02006KT

本日は、曇りで雨までは降らないと予想していましたが昼頃から小雨、雨の合間に
何時もの訓練フライトと飛行場祭りのデモフライトの訓練を行いました。
また、最近、日没時間に比例して訓練生が集まる時間も早くなる法則を発見しました。

解散    17:30

1番機  10:15離陸 撤収機  17:05着陸 

SF25C JA2330 ファルケ     09Flt.2h35min  
17E   JA2342 タイフーン    02Flt.0h45min  
合計                    11Flt.3h20min

    << 戻る || ホームページ || 最新の掲示板へ